Sycamore, Alabama
Current Conditions -  °F | °C
As of 9:35 AM on Saturday 22 Nov 2014 (Local Time) from KSCD Reporting Station
Clear Clear  
Wind Chill: 57°   Ceiling: Unl
Heat Index: 57°   Visibility: 10mi
Dew Point: 41°   Wind: 12mph
Humidity: 56%   Direction: 140°SE
Pressure: 30.37"   Gusts: 21mph
Location:  33.25°N, 86.2°W
Report Text: KSCD 221535Z AUTO 14010G18KT 10SM CLR 14/05 A3037 RMK AO2 T01370051
Loading
Personal Weather Stations






























Interactive Weather Map New forecast layout! Learn more

10-Day Weather Forecast

Advertisements
Track Severe Weather on mobile